Shoshone, California Weather observations

Data are for observation ending at time listed.
 Day   Time    Ave.   Ave.  Ave.  Vector   Max.   Stn.    Total    Solar   Ave.  
  of    of     Air    Rel.  Wind   Wind    Wind   Baro.  Precip.   Rad.    Soil  
Year   Day     Temp.  Hum.  Speed  Dir.    Gust   Pres.                    Temp. 
2014   (PST)    F      %     mph   deg.    mph     mb.     in.     W/m2     F   
------------------------------------------------------------------------------
 106    7:00   57.7    26    0.8    51      3.2    962     0.00     221    99999.0
 106    8:00   65.3    17    1.2    72      3.7    963     0.00     442    70.0
 106    9:00   72.4    13    1.3   145      5.3    962     0.00     651    71.7
 106   10:00   79.8    11    1.8   304      9.9    962     0.00     824    74.4
 106   11:00   82.6    10    2.6   305     11.1    962     0.00     941    77.7
 106   12:00   85.7     9    2.6   353      7.4    961     0.00     997    99999.0
 106   13:00   88.2     8    3.4   359     11.2    960     0.00     986    84.4
 106   14:00   89.8     8    3.2   185      8.5    960     0.00     912    99999.0
 106   15:00   91.3     8    3.2   288      9.3    959     0.00     769    99999.0
 106   16:00   91.6     8    4.4   181     13.4    958     0.00     576    99999.0
 106   17:00   91.2     9    4.2   168     14.7    958     0.00     356    99999.0
 106   18:00   88.9     9    4.4   177     11.2    958     0.00     115    87.4
 106   19:00   84.3    11    2.2   182      6.5    958     0.00       6    99999.0
 106   20:00   76.7    14    1.6    72      7.2    959     0.00       0    99999.0
 106   21:00   71.5    16    1.2    38      4.1    959     0.00       0    99999.0
 106   22:00   67.7    18    0.8   351      3.2    959     0.00       0    99999.0
 106   23:00   65.1    21    0.6    36      2.6    960     0.00       0    99999.0
 107    0:00   62.9    21    1.1    35      3.1    960     0.00       0    99999.0
 107    1:00   60.0    24    0.6   337      3.0    961     0.00       0    79.0
 107    2:00   56.9    27    1.3    34      4.1    961     0.00       1    99999.0
 107    3:00   56.1    26    1.6    35      4.9    961     0.00       1    99999.0
 107    4:00   53.5    31    0.9    43      4.5    962     0.00       1    99999.0
 107    5:00   52.7    30    1.0    49      3.3    962     0.00       2    99999.0
 107    6:00   50.7    34    1.3   334      4.6    963     0.00      38    99999.0

Return to Shoshone, California graphs page.


Western Regional Climate Center,wrcc@dri.edu